Time;durP1;ratioP1;P1;durP2;ratioP2;P2;SDS_P1;SDS_P2;PMS_P1;PMS_P2;Temp;Humidity;BMP_temperature;BMP_pressure;BME280_temperature;BME280_humidity;BME280_pressure;Samples;Min_cycle;Max_cycle;Signal;HPM_P1;HPM_P2
2022/11/22 00:00:59;;;;;;;21.30;10.73;;;;;;;;;;5094297;28;20533;-67
2022/11/22 00:03:27;;;;;;;15.57;9.27;;;;;;;;;;5094648;28;20748;-67
2022/11/22 00:05:55;;;;;;;18.53;8.90;;;;;;;;;;5094047;28;20459;-67
2022/11/22 00:08:24;;;;;;;21.50;9.23;;;;;;;;;;5095019;28;20749;-67
2022/11/22 00:10:51;;;;;;;15.60;8.40;;;;;;;;;;5094375;28;20528;-67
2022/11/22 00:13:20;;;;;;;16.33;8.43;;;;;;;;;;5093937;28;20487;-67
2022/11/22 00:15:58;;;;;;;18.03;10.00;;;;;;;;;;5094096;28;20464;-67
2022/11/22 00:18:25;;;;;;;16.93;9.47;;;;;;;;;;5094114;28;20454;-67
2022/11/22 00:20:53;;;;;;;19.33;10.53;;;;;;;;;;5092462;28;20462;-67
2022/11/22 00:23:20;;;;;;;18.40;9.63;;;;;;;;;;5094330;28;20460;-67
2022/11/22 00:25:49;;;;;;;16.17;8.80;;;;;;;;;;5094049;28;20467;-67
2022/11/22 00:28:17;;;;;;;18.50;9.47;;;;;;;;;;5094035;28;20452;-67
2022/11/22 00:30:44;;;;;;;18.07;9.87;;;;;;;;;;5094359;28;20471;-67
2022/11/22 00:33:12;;;;;;;18.43;11.23;;;;;;;;;;5093826;28;20495;-67
2022/11/22 00:35:40;;;;;;;17.43;10.43;;;;;;;;;;5093987;28;20460;-67
2022/11/22 00:38:07;;;;;;;16.57;9.50;;;;;;;;;;5093674;28;20470;-67
2022/11/22 00:40:35;;;;;;;19.57;10.27;;;;;;;;;;5093267;28;20751;-67
2022/11/22 00:43:04;;;;;;;14.30;7.83;;;;;;;;;;5094052;28;20751;-66
2022/11/22 00:45:32;;;;;;;19.83;10.53;;;;;;;;;;5091954;28;20471;-68
2022/11/22 00:47:59;;;;;;;21.83;10.10;;;;;;;;;;5093924;28;20741;-68
2022/11/22 00:50:27;;;;;;;20.93;10.43;;;;;;;;;;5093844;28;20502;-65
2022/11/22 00:52:55;;;;;;;20.30;10.97;;;;;;;;;;5093452;28;20570;-65
2022/11/22 00:55:22;;;;;;;17.30;10.13;;;;;;;;;;5094096;28;20459;-65
2022/11/22 00:57:50;;;;;;;18.90;11.17;;;;;;;;;;5093630;28;20456;-67
2022/11/22 01:00:21;;;;;;;19.73;9.83;;;;;;;;;;5093749;28;20707;-67
2022/11/22 01:02:48;;;;;;;18.40;9.13;;;;;;;;;;5097893;28;20886;-67
2022/11/22 01:05:17;;;;;;;18.33;11.50;;;;;;;;;;5097003;28;20470;-68
2022/11/22 01:07:46;;;;;;;18.73;9.20;;;;;;;;;;5097372;28;20870;-67
2022/11/22 01:10:13;;;;;;;23.50;12.30;;;;;;;;;;5096282;28;20546;-67
2022/11/22 01:12:41;;;;;;;18.43;10.13;;;;;;;;;;5096152;28;20506;-67
2022/11/22 01:15:09;;;;;;;18.00;9.90;;;;;;;;;;5097180;28;20464;-67
2022/11/22 01:17:38;;;;;;;18.83;11.33;;;;;;;;;;5097060;28;20532;-68
2022/11/22 01:20:06;;;;;;;20.23;9.43;;;;;;;;;;5097033;28;20459;-67
2022/11/22 01:22:34;;;;;;;21.30;10.60;;;;;;;;;;5097178;28;20467;-68
2022/11/22 01:25:02;;;;;;;13.83;8.27;;;;;;;;;;5096080;28;20875;-67
2022/11/22 01:27:29;;;;;;;21.80;11.10;;;;;;;;;;5097492;28;20451;-67
2022/11/22 01:29:57;;;;;;;17.93;10.80;;;;;;;;;;5096803;28;20455;-68
2022/11/22 01:32:25;;;;;;;22.10;9.50;;;;;;;;;;5096431;28;20456;-67
2022/11/22 01:34:57;;;;;;;15.87;9.93;;;;;;;;;;5096636;28;20455;-67
2022/11/22 01:37:25;;;;;;;18.43;9.40;;;;;;;;;;5096839;28;20466;-67
2022/11/22 01:39:52;;;;;;;21.90;12.30;;;;;;;;;;5096677;28;20464;-67
2022/11/22 01:42:23;;;;;;;20.17;10.43;;;;;;;;;;5097326;28;20485;-67
2022/11/22 01:44:51;;;;;;;18.90;9.37;;;;;;;;;;5097179;28;20448;-67
2022/11/22 01:47:21;;;;;;;18.87;8.93;;;;;;;;;;5096689;28;20536;-68
2022/11/22 01:49:53;;;;;;;16.90;9.07;;;;;;;;;;5096661;28;20455;-68
2022/11/22 01:52:25;;;;;;;17.20;10.50;;;;;;;;;;5096767;28;20460;-68
2022/11/22 01:54:56;;;;;;;22.33;10.80;;;;;;;;;;5096373;28;20455;-68
2022/11/22 01:57:25;;;;;;;20.93;10.93;;;;;;;;;;5097303;28;20491;-68
2022/11/22 01:59:54;;;;;;;15.70;8.90;;;;;;;;;;5094832;28;20493;-68
2022/11/22 02:02:22;;;;;;;22.20;9.77;;;;;;;;;;5096443;28;20475;-67
2022/11/22 02:04:50;;;;;;;17.03;10.17;;;;;;;;;;5096610;28;20458;-68
2022/11/22 02:07:21;;;;;;;20.07;11.10;;;;;;;;;;5095933;28;20906;-67
2022/11/22 02:09:52;;;;;;;18.30;10.13;;;;;;;;;;5097690;28;20458;-67
2022/11/22 02:12:21;;;;;;;19.73;10.50;;;;;;;;;;5097923;28;20456;-67
2022/11/22 02:14:49;;;;;;;19.30;10.53;;;;;;;;;;5097778;28;20452;-67
2022/11/22 02:17:17;;;;;;;16.93;8.70;;;;;;;;;;5098692;28;20466;-67
2022/11/22 02:19:45;;;;;;;21.97;10.60;;;;;;;;;;5098069;28;20538;-67
2022/11/22 02:22:26;;;;;;;17.77;9.87;;;;;;;;;;5096967;28;20739;-68
2022/11/22 02:24:57;;;;;;;16.93;10.20;;;;;;;;;;5079652;28;20455;-68
2022/11/22 02:27:27;;;;;;;20.30;10.73;;;;;;;;;;5095290;28;20459;-67
2022/11/22 02:29:54;;;;;;;20.97;10.00;;;;;;;;;;5095642;28;20439;-67
2022/11/22 02:32:22;;;;;;;19.40;10.07;;;;;;;;;;5095354;28;20451;-68
2022/11/22 02:37:48;;;;;;;21.70;11.20;;;;;;;;;;5094886;28;20550;-67
2022/11/22 02:40:16;;;;;;;14.93;9.20;;;;;;;;;;5094761;28;20856;-68
2022/11/22 02:42:49;;;;;;;13.47;7.37;;;;;;;;;;5094834;28;20685;-67
2022/11/22 02:45:16;;;;;;;18.03;9.97;;;;;;;;;;5095987;28;20461;-67
2022/11/22 02:47:44;;;;;;;18.23;9.40;;;;;;;;;;5095447;28;20456;-67
2022/11/22 02:50:12;;;;;;;18.47;8.93;;;;;;;;;;5095220;28;20871;-67
2022/11/22 02:52:39;;;;;;;18.03;10.73;;;;;;;;;;5094924;28;20459;-67
2022/11/22 02:55:07;;;;;;;17.17;10.20;;;;;;;;;;5094477;28;20467;-67
2022/11/22 02:57:35;;;;;;;20.40;10.67;;;;;;;;;;5094843;28;20460;-67
2022/11/22 03:00:04;;;;;;;17.50;9.43;;;;;;;;;;5094621;28;20819;-67
2022/11/22 03:02:32;;;;;;;16.17;9.93;;;;;;;;;;5094425;28;20494;-67
2022/11/22 03:04:59;;;;;;;17.00;9.20;;;;;;;;;;5093672;28;20476;-67
2022/11/22 03:07:27;;;;;;;18.07;10.37;;;;;;;;;;5093299;28;20458;-68
2022/11/22 03:09:54;;;;;;;15.40;10.33;;;;;;;;;;5094580;28;20880;-68
2022/11/22 03:12:22;;;;;;;22.00;11.33;;;;;;;;;;5093484;28;20459;-67
2022/11/22 03:14:50;;;;;;;17.20;10.73;;;;;;;;;;5093726;28;20487;-67
2022/11/22 03:17:19;;;;;;;19.70;13.23;;;;;;;;;;5093847;28;20716;-67
2022/11/22 03:19:49;;;;;;;19.97;12.20;;;;;;;;;;5094229;28;20467;-66
2022/11/22 03:22:17;;;;;;;17.57;9.77;;;;;;;;;;5094949;28;20872;-67
2022/11/22 03:24:44;;;;;;;18.30;8.97;;;;;;;;;;5094434;28;20467;-67
2022/11/22 03:27:12;;;;;;;18.93;11.37;;;;;;;;;;5094357;28;20467;-67
2022/11/22 03:29:40;;;;;;;16.47;8.60;;;;;;;;;;5094477;28;20456;-67
2022/11/22 03:32:07;;;;;;;20.23;10.43;;;;;;;;;;5093918;28;20452;-67
2022/11/22 03:34:36;;;;;;;21.93;9.40;;;;;;;;;;5094455;28;20484;-67
2022/11/22 03:37:04;;;;;;;17.03;9.13;;;;;;;;;;5094245;28;20903;-67
2022/11/22 03:39:34;;;;;;;16.33;9.33;;;;;;;;;;5094579;28;20471;-67
2022/11/22 03:42:02;;;;;;;14.77;9.60;;;;;;;;;;5086231;28;20467;-67
2022/11/22 03:44:29;;;;;;;14.50;8.50;;;;;;;;;;5074001;28;20726;-67
2022/11/22 03:46:57;;;;;;;19.40;8.60;;;;;;;;;;5074246;28;20467;-67
2022/11/22 03:49:25;;;;;;;16.70;9.37;;;;;;;;;;5074358;28;20464;-67
2022/11/22 03:51:54;;;;;;;18.33;10.40;;;;;;;;;;5074181;28;20460;-67
2022/11/22 03:54:21;;;;;;;17.93;9.40;;;;;;;;;;5074498;28;20495;-67
2022/11/22 03:56:49;;;;;;;18.83;10.47;;;;;;;;;;5072753;28;20737;-67
2022/11/22 03:59:17;;;;;;;20.27;11.10;;;;;;;;;;5073666;28;20551;-67
2022/11/22 04:01:44;;;;;;;19.67;11.40;;;;;;;;;;5073559;28;20836;-67
2022/11/22 04:04:12;;;;;;;16.30;9.30;;;;;;;;;;5107886;28;20753;-67
2022/11/22 04:06:40;;;;;;;20.40;9.27;;;;;;;;;;5114280;28;20462;-67
2022/11/22 04:09:09;;;;;;;15.60;9.00;;;;;;;;;;5112841;28;21086;-67
2022/11/22 04:11:36;;;;;;;15.93;9.13;;;;;;;;;;5114263;28;20700;-68
2022/11/22 04:16:49;;;;;;;15.87;7.57;;;;;;;;;;5113841;28;20889;-67
2022/11/22 04:19:16;;;;;;;22.00;8.83;;;;;;;;;;5113012;28;20465;-68
2022/11/22 04:21:43;;;;;;;14.97;8.90;;;;;;;;;;5113357;28;20447;-68
2022/11/22 04:26:58;;;;;;;16.37;9.17;;;;;;;;;;5113801;28;20449;-68
2022/11/22 04:29:25;;;;;;;21.23;10.20;;;;;;;;;;5113970;28;20451;-68
2022/11/22 04:34:41;;;;;;;23.53;10.80;;;;;;;;;;5113826;28;20818;-68
2022/11/22 04:37:08;;;;;;;12.60;8.80;;;;;;;;;;5116879;28;20473;-68
2022/11/22 04:39:37;;;;;;;16.90;10.63;;;;;;;;;;5116588;28;20458;-68
2022/11/22 04:44:50;;;;;;;14.83;9.07;;;;;;;;;;5117260;28;20433;-67
2022/11/22 04:50:00;;;;;;;14.17;8.97;;;;;;;;;;5117166;28;20470;-67
2022/11/22 04:55:14;;;;;;;14.40;9.20;;;;;;;;;;5117260;28;20473;-68
2022/11/22 04:57:42;;;;;;;15.57;9.07;;;;;;;;;;5116154;28;20475;-68
2022/11/22 05:00:10;;;;;;;18.03;8.40;;;;;;;;;;5102658;28;20875;-68
2022/11/22 05:02:37;;;;;;;16.63;9.80;;;;;;;;;;5104286;28;20466;-67
2022/11/22 05:05:05;;;;;;;16.30;8.90;;;;;;;;;;5097537;28;20463;-68
2022/11/22 05:07:34;;;;;;;18.63;9.63;;;;;;;;;;5097735;28;20470;-68
2022/11/22 05:10:02;;;;;;;13.50;8.00;;;;;;;;;;5103798;28;20474;-68
2022/11/22 05:12:31;;;;;;;18.80;10.50;;;;;;;;;;5117360;28;20458;-68
2022/11/22 05:14:59;;;;;;;16.00;8.77;;;;;;;;;;5105502;28;20479;-68
2022/11/22 05:17:26;;;;;;;18.03;8.17;;;;;;;;;;5100210;28;20460;-68
2022/11/22 05:19:54;;;;;;;17.57;9.53;;;;;;;;;;5099696;28;20447;-68
2022/11/22 05:23:53;;;;;;;14.27;9.03;;;;;;;;;;5099667;28;20474;-67
2022/11/22 05:25:09;;;;;;;16.40;9.90;;;;;;;;;;5100033;28;20478;-68
2022/11/22 05:27:38;;;;;;;18.20;9.57;;;;;;;;;;5099690;28;20739;-68
2022/11/22 05:30:06;;;;;;;16.43;8.53;;;;;;;;;;5098747;28;20455;-68
2022/11/22 05:32:34;;;;;;;14.33;8.13;;;;;;;;;;5099254;28;20886;-68
2022/11/22 05:35:02;;;;;;;19.20;10.33;;;;;;;;;;5099673;28;20487;-67
2022/11/22 05:37:36;;;;;;;14.20;9.60;;;;;;;;;;5099252;28;20495;-66
2022/11/22 05:40:05;;;;;;;18.23;9.67;;;;;;;;;;5098741;28;20894;-68
2022/11/22 05:42:33;;;;;;;16.70;9.63;;;;;;;;;;5098081;28;20463;-69
2022/11/22 05:45:05;;;;;;;14.83;8.77;;;;;;;;;;5099056;28;20531;-67
2022/11/22 05:47:34;;;;;;;13.53;9.50;;;;;;;;;;5097932;28;20464;-68
2022/11/22 05:50:03;;;;;;;16.07;9.20;;;;;;;;;;5097871;28;20478;-68
2022/11/22 05:52:32;;;;;;;18.33;10.27;;;;;;;;;;5099201;28;20452;-68
2022/11/22 05:54:59;;;;;;;16.87;9.87;;;;;;;;;;5096684;28;20483;-67
2022/11/22 05:57:27;;;;;;;17.73;9.50;;;;;;;;;;5095860;28;20463;-67
2022/11/22 05:59:55;;;;;;;15.87;10.03;;;;;;;;;;5110287;28;20463;-68
2022/11/22 06:02:24;;;;;;;16.50;9.70;;;;;;;;;;5096128;28;20470;-68
2022/11/22 06:04:52;;;;;;;15.53;9.00;;;;;;;;;;5094293;28;20455;-68
2022/11/22 06:07:19;;;;;;;19.60;10.10;;;;;;;;;;5079555;28;20967;-68
2022/11/22 06:09:47;;;;;;;20.43;9.90;;;;;;;;;;5084789;28;20479;-67
2022/11/22 06:12:16;;;;;;;14.07;9.63;;;;;;;;;;5110474;28;20458;-67
2022/11/22 06:14:47;;;;;;;19.97;9.57;;;;;;;;;;5111517;28;20478;-67
2022/11/22 06:17:14;;;;;;;14.87;10.40;;;;;;;;;;5094228;28;20777;-67
2022/11/22 06:19:43;;;;;;;18.33;9.47;;;;;;;;;;5083360;28;20752;-67
2022/11/22 06:22:11;;;;;;;17.17;10.70;;;;;;;;;;5087446;28;20578;-68
2022/11/22 06:24:39;;;;;;;19.73;10.20;;;;;;;;;;5093873;28;20463;-67
2022/11/22 06:27:07;;;;;;;16.37;9.47;;;;;;;;;;5093530;28;20547;-66
2022/11/22 06:29:35;;;;;;;15.90;10.80;;;;;;;;;;5092528;28;20509;-69
2022/11/22 06:32:03;;;;;;;20.10;11.60;;;;;;;;;;5091268;28;20462;-69
2022/11/22 06:34:31;;;;;;;18.40;10.00;;;;;;;;;;5091962;28;20483;-69
2022/11/22 06:37:00;;;;;;;22.17;11.10;;;;;;;;;;5101901;28;20455;-68
2022/11/22 06:39:28;;;;;;;16.43;9.23;;;;;;;;;;5091569;28;20551;-69
2022/11/22 06:41:56;;;;;;;19.10;10.53;;;;;;;;;;5072322;28;21086;-69
2022/11/22 06:44:24;;;;;;;17.93;11.40;;;;;;;;;;5071085;28;20844;-69
2022/11/22 06:46:52;;;;;;;19.80;11.13;;;;;;;;;;5090552;28;21038;-67
2022/11/22 06:49:20;;;;;;;19.63;10.73;;;;;;;;;;5097375;28;20486;-68
2022/11/22 06:51:53;;;;;;;20.77;11.10;;;;;;;;;;5092023;28;20585;-69
2022/11/22 06:54:22;;;;;;;20.97;12.33;;;;;;;;;;5094871;28;21007;-69
2022/11/22 06:56:57;;;;;;;16.80;11.20;;;;;;;;;;5092792;28;20566;-69
2022/11/22 06:59:26;;;;;;;17.00;10.80;;;;;;;;;;5074166;28;20708;-69
2022/11/22 07:01:54;;;;;;;18.87;9.60;;;;;;;;;;5087730;28;20524;-69
2022/11/22 07:04:23;;;;;;;20.97;11.33;;;;;;;;;;5091926;28;20474;-69
2022/11/22 07:06:51;;;;;;;17.53;8.80;;;;;;;;;;5092826;28;20463;-68
2022/11/22 07:09:19;;;;;;;16.17;10.63;;;;;;;;;;5093067;28;21063;-69
2022/11/22 07:11:48;;;;;;;17.97;11.20;;;;;;;;;;5092361;28;20460;-68
2022/11/22 07:14:18;;;;;;;18.10;10.83;;;;;;;;;;5094527;28;20487;-69
2022/11/22 07:16:46;;;;;;;16.57;9.30;;;;;;;;;;5093622;28;20464;-69
2022/11/22 07:19:18;;;;;;;18.77;9.53;;;;;;;;;;5113990;28;20470;-69
2022/11/22 07:21:45;;;;;;;16.83;10.77;;;;;;;;;;5113692;28;20526;-69
2022/11/22 07:24:13;;;;;;;20.37;10.83;;;;;;;;;;5098121;28;20463;-70
2022/11/22 07:26:52;;;;;;;21.40;11.00;;;;;;;;;;5090954;28;20800;-70
2022/11/22 07:29:22;;;;;;;17.90;11.33;;;;;;;;;;5090705;28;20451;-69
2022/11/22 07:31:50;;;;;;;16.73;9.43;;;;;;;;;;5094379;28;20472;-70
2022/11/22 07:34:24;;;;;;;20.13;11.40;;;;;;;;;;5092287;28;20779;-69
2022/11/22 07:36:52;;;;;;;15.70;10.30;;;;;;;;;;5089250;28;20535;-69
2022/11/22 07:39:20;;;;;;;20.90;11.90;;;;;;;;;;5095853;28;21089;-69
2022/11/22 07:41:47;;;;;;;15.27;9.27;;;;;;;;;;5094518;28;20455;-69
2022/11/22 07:44:22;;;;;;;19.33;9.87;;;;;;;;;;5078301;28;20555;-69
2022/11/22 07:46:52;;;;;;;17.27;9.93;;;;;;;;;;5090780;28;20501;-68
2022/11/22 07:49:20;;;;;;;19.33;9.60;;;;;;;;;;5072805;28;21141;-69
2022/11/22 07:51:53;;;;;;;18.13;10.77;;;;;;;;;;5081688;28;20812;-68
2022/11/22 07:54:26;;;;;;;15.60;9.37;;;;;;;;;;5086510;28;20455;-69
2022/11/22 07:56:55;;;;;;;21.80;11.10;;;;;;;;;;5082837;28;20766;-68
2022/11/22 08:02:18;;;;;;;24.00;10.60;;;;;;;;;;5090584;28;20486;-70
2022/11/22 08:04:46;;;;;;;23.33;11.90;;;;;;;;;;5066286;28;20480;-68
2022/11/22 08:07:17;;;;;;;17.43;9.67;;;;;;;;;;5091555;28;20555;-68
2022/11/22 08:09:47;;;;;;;26.57;11.87;;;;;;;;;;5086823;28;20469;-68
2022/11/22 08:12:14;;;;;;;17.27;11.27;;;;;;;;;;5081029;28;20464;-68
2022/11/22 08:14:59;;;;;;;19.13;10.80;;;;;;;;;;5095413;28;20547;-68
2022/11/22 08:17:49;;;;;;;19.80;10.30;;;;;;;;;;5088176;28;20446;-68
2022/11/22 08:20:17;;;;;;;17.70;10.77;;;;;;;;;;5090324;28;20455;-69
2022/11/22 08:22:50;;;;;;;20.17;11.00;;;;;;;;;;5095287;28;20463;-73
2022/11/22 08:25:20;;;;;;;25.17;12.60;;;;;;;;;;5092099;28;20751;-69
2022/11/22 08:27:57;;;;;;;17.80;10.80;;;;;;;;;;5095866;28;20453;-69
2022/11/22 08:30:25;;;;;;;19.43;11.30;;;;;;;;;;5106966;28;20447;-68
2022/11/22 08:33:04;;;;;;;16.87;11.63;;;;;;;;;;5093859;28;21081;-68
2022/11/22 08:35:39;;;;;;;23.90;11.80;;;;;;;;;;5095337;28;20483;-68
2022/11/22 08:38:26;;;;;;;16.53;10.50;;;;;;;;;;5099844;28;20551;-69
2022/11/22 08:40:55;;;;;;;20.83;12.60;;;;;;;;;;5066696;28;20580;-67
2022/11/22 08:43:33;;;;;;;20.70;12.57;;;;;;;;;;5089619;28;20452;-67
2022/11/22 08:46:12;;;;;;;20.63;11.70;;;;;;;;;;5091749;28;20522;-68
2022/11/22 08:48:43;;;;;;;20.77;10.47;;;;;;;;;;5093348;28;20479;-67
2022/11/22 08:51:20;;;;;;;17.67;10.90;;;;;;;;;;5097644;28;20536;-67
2022/11/22 08:53:49;;;;;;;21.10;11.10;;;;;;;;;;5094222;28;20451;-68
2022/11/22 08:56:24;;;;;;;20.03;11.40;;;;;;;;;;5094300;28;20475;-69
2022/11/22 08:59:02;;;;;;;21.40;11.10;;;;;;;;;;5086766;28;20462;-68
2022/11/22 09:01:31;;;;;;;15.30;10.20;;;;;;;;;;5091181;28;20466;-69
2022/11/22 09:04:15;;;;;;;19.27;11.53;;;;;;;;;;5098076;28;20543;-69
2022/11/22 09:07:04;;;;;;;21.10;13.37;;;;;;;;;;5089326;28;20459;-68
2022/11/22 09:09:34;;;;;;;26.50;13.17;;;;;;;;;;5095080;28;20774;-68
2022/11/22 09:12:09;;;;;;;20.50;12.57;;;;;;;;;;5099259;28;20491;-68
2022/11/22 09:14:37;;;;;;;20.87;11.30;;;;;;;;;;5095820;28;20537;-68
2022/11/22 09:17:10;;;;;;;20.67;10.23;;;;;;;;;;5089620;28;20463;-68
2022/11/22 09:19:44;;;;;;;23.30;12.60;;;;;;;;;;5080421;28;20879;-69
2022/11/22 09:22:48;;;;;;;19.97;11.70;;;;;;;;;;5095742;28;20502;-69
2022/11/22 09:25:16;;;;;;;23.57;11.37;;;;;;;;;;5082497;28;20612;-69
2022/11/22 09:27:53;;;;;;;15.93;8.23;;;;;;;;;;5092720;28;20558;-69
2022/11/22 09:33:34;;;;;;;19.83;11.27;;;;;;;;;;5096670;28;20535;-69
2022/11/22 09:36:04;;;;;;;22.67;13.93;;;;;;;;;;5092005;28;20591;-68
2022/11/22 09:38:33;;;;;;;21.30;11.40;;;;;;;;;;5093630;28;20895;-69
2022/11/22 09:41:05;;;;;;;23.30;14.33;;;;;;;;;;5083555;28;20565;-69
2022/11/22 09:43:39;;;;;;;23.37;15.20;;;;;;;;;;5092397;28;20453;-69
2022/11/22 09:46:19;;;;;;;23.27;12.53;;;;;;;;;;5097630;28;20467;-70
2022/11/22 09:49:08;;;;;;;28.40;11.67;;;;;;;;;;5089190;28;20463;-69
2022/11/22 09:51:52;;;;;;;22.93;13.50;;;;;;;;;;5091646;28;20456;-71
2022/11/22 09:54:27;;;;;;;18.67;10.60;;;;;;;;;;5090353;28;20475;-70
2022/11/22 09:57:16;;;;;;;21.17;12.47;;;;;;;;;;5091446;28;20501;-69
2022/11/22 09:59:52;;;;;;;20.60;12.90;;;;;;;;;;5077001;28;20820;-70
2022/11/22 10:02:36;;;;;;;18.77;12.43;;;;;;;;;;5088575;28;20462;-68
2022/11/22 10:05:06;;;;;;;21.10;10.90;;;;;;;;;;5105141;28;20481;-68
2022/11/22 10:07:41;;;;;;;22.10;12.33;;;;;;;;;;5085893;28;20475;-68
2022/11/22 10:10:19;;;;;;;19.00;11.90;;;;;;;;;;5082492;28;20466;-67
2022/11/22 10:12:54;;;;;;;22.40;11.30;;;;;;;;;;5088885;28;20447;-67
2022/11/22 10:18:35;;;;;;;21.80;10.47;;;;;;;;;;5088685;28;20470;-67
2022/11/22 10:21:20;;;;;;;17.13;10.30;;;;;;;;;;5099292;28;20494;-70
2022/11/22 10:23:51;;;;;;;22.50;12.83;;;;;;;;;;5091964;28;20464;-69
2022/11/22 10:29:27;;;;;;;21.73;11.63;;;;;;;;;;5023577;28;20460;-70
2022/11/22 10:32:06;;;;;;;22.80;14.07;;;;;;;;;;5093117;28;20463;-71
2022/11/22 10:34:41;;;;;;;18.90;10.63;;;;;;;;;;5090698;28;20474;-69
2022/11/22 10:37:19;;;;;;;26.23;11.80;;;;;;;;;;5092717;28;20495;-70
2022/11/22 10:40:04;;;;;;;26.73;16.00;;;;;;;;;;5093140;28;20455;-68
2022/11/22 10:43:06;;;;;;;22.27;12.70;;;;;;;;;;5091582;28;20462;-68
2022/11/22 10:45:37;;;;;;;21.80;13.47;;;;;;;;;;5030178;28;20517;-70
2022/11/22 10:48:12;;;;;;;20.90;12.00;;;;;;;;;;5029798;28;21181;-68
2022/11/22 10:50:47;;;;;;;21.00;12.47;;;;;;;;;;5055202;28;20460;-68
2022/11/22 10:53:19;;;;;;;24.80;12.73;;;;;;;;;;5088660;28;20485;-68
2022/11/22 10:56:00;;;;;;;19.50;13.00;;;;;;;;;;5064812;28;20500;-69
2022/11/22 10:58:36;;;;;;;19.43;9.97;;;;;;;;;;5074000;28;20918;-68
2022/11/22 11:01:10;;;;;;;22.00;12.07;;;;;;;;;;5094657;28;20486;-68
2022/11/22 11:03:41;;;;;;;24.47;14.87;;;;;;;;;;5093427;28;20868;-69
2022/11/22 11:06:15;;;;;;;28.93;13.57;;;;;;;;;;5095514;28;20456;-68
2022/11/22 11:08:47;;;;;;;23.47;14.10;;;;;;;;;;5088050;28;21000;-70
2022/11/22 11:11:39;;;;;;;22.57;12.80;;;;;;;;;;5092785;28;20450;-70
2022/11/22 11:14:22;;;;;;;19.63;10.20;;;;;;;;;;5064125;28;20564;-69
2022/11/22 11:16:50;;;;;;;26.80;14.40;;;;;;;;;;5088308;28;20910;-69
2022/11/22 11:19:19;;;;;;;35.00;15.17;;;;;;;;;;5090984;28;20803;-69
2022/11/22 11:21:48;;;;;;;20.67;12.77;;;;;;;;;;5073355;28;20852;-68
2022/11/22 11:24:18;;;;;;;23.17;11.53;;;;;;;;;;5080168;28;20472;-69
2022/11/22 11:26:56;;;;;;;22.77;12.03;;;;;;;;;;5092005;28;20827;-69
2022/11/22 11:29:40;;;;;;;24.40;12.03;;;;;;;;;;5091232;28;20800;-69
2022/11/22 11:32:13;;;;;;;24.57;16.43;;;;;;;;;;5084786;28;20448;-69
2022/11/22 11:34:46;;;;;;;23.60;15.20;;;;;;;;;;5074603;28;20448;-70
2022/11/22 11:37:25;;;;;;;23.60;14.70;;;;;;;;;;5074018;28;20480;-68
2022/11/22 11:40:06;;;;;;;20.30;12.23;;;;;;;;;;5072523;28;20513;-69
2022/11/22 11:42:36;;;;;;;24.77;14.53;;;;;;;;;;5070765;28;20471;-69
2022/11/22 11:45:31;;;;;;;25.23;13.27;;;;;;;;;;5071260;28;20528;-69
2022/11/22 11:48:02;;;;;;;30.20;15.53;;;;;;;;;;5071125;28;20745;-69
2022/11/22 11:50:31;;;;;;;29.67;15.57;;;;;;;;;;5073124;28;20444;-69
2022/11/22 11:53:12;;;;;;;23.20;12.93;;;;;;;;;;5090488;28;20474;-69
2022/11/22 11:55:44;;;;;;;25.57;15.47;;;;;;;;;;5096858;28;20560;-69
2022/11/22 11:58:21;;;;;;;24.40;12.43;;;;;;;;;;5076232;28;20525;-69
2022/11/22 12:00:57;;;;;;;23.93;14.60;;;;;;;;;;5070657;28;20444;-69
2022/11/22 12:03:35;;;;;;;17.47;10.77;;;;;;;;;;5086337;28;20855;-69
2022/11/22 12:06:15;;;;;;;21.20;12.43;;;;;;;;;;5101544;28;20775;-69
2022/11/22 12:08:48;;;;;;;20.27;12.47;;;;;;;;;;5091962;28;20554;-69
2022/11/22 12:11:21;;;;;;;24.93;13.43;;;;;;;;;;5086247;28;20463;-69
2022/11/22 12:13:51;;;;;;;32.10;14.43;;;;;;;;;;5092946;28;20501;-69
2022/11/22 12:16:26;;;;;;;24.77;12.27;;;;;;;;;;5084141;28;20614;-70
2022/11/22 12:18:56;;;;;;;20.70;12.30;;;;;;;;;;5089277;28;20570;-70
2022/11/22 12:21:28;;;;;;;21.17;12.73;;;;;;;;;;5082624;28;20474;-71
2022/11/22 12:24:04;;;;;;;23.50;12.43;;;;;;;;;;5071420;28;20460;-71
2022/11/22 12:26:39;;;;;;;25.27;14.77;;;;;;;;;;5075935;28;20485;-69
2022/11/22 12:29:14;;;;;;;23.63;13.00;;;;;;;;;;5095220;28;20467;-69
2022/11/22 12:31:51;;;;;;;21.47;13.77;;;;;;;;;;5092640;28;20463;-69
2022/11/22 12:34:23;;;;;;;23.23;12.07;;;;;;;;;;5091185;28;20460;-70
2022/11/22 12:36:53;;;;;;;23.77;14.07;;;;;;;;;;5091348;28;20562;-70
2022/11/22 12:39:34;;;;;;;30.83;15.70;;;;;;;;;;5080408;28;20456;-71
2022/11/22 12:42:07;;;;;;;24.90;13.20;;;;;;;;;;5090935;28;20867;-67
2022/11/22 12:47:43;;;;;;;23.50;12.67;;;;;;;;;;5095626;28;20949;-68
2022/11/22 12:50:32;;;;;;;30.17;12.47;;;;;;;;;;5097086;28;20586;-68
2022/11/22 12:53:21;;;;;;;19.67;11.67;;;;;;;;;;5071033;28;20943;-69
2022/11/22 12:55:59;;;;;;;22.97;12.63;;;;;;;;;;5090301;28;20522;-68
2022/11/22 12:58:42;;;;;;;25.57;13.33;;;;;;;;;;5086483;28;20468;-68
2022/11/22 13:01:23;;;;;;;20.30;12.60;;;;;;;;;;5090513;28;20538;-72
2022/11/22 13:12:59;;;;;;;24.97;13.57;;;;;;;;;;5088972;28;20453;-69
2022/11/22 13:15:40;;;;;;;20.33;11.70;;;;;;;;;;5089878;28;20447;-69
2022/11/22 13:18:16;;;;;;;23.80;12.47;;;;;;;;;;5098754;28;20470;-67
2022/11/22 13:24:06;;;;;;;18.50;11.47;;;;;;;;;;5077070;28;20471;-70
2022/11/22 13:26:47;;;;;;;23.80;13.97;;;;;;;;;;5079109;28;20481;-71
2022/11/22 13:29:29;;;;;;;27.17;14.93;;;;;;;;;;5087192;28;20544;-69
2022/11/22 13:32:30;;;;;;;23.07;13.97;;;;;;;;;;5101400;28;20456;-69
2022/11/22 13:38:08;;;;;;;29.10;15.03;;;;;;;;;;5105002;28;20451;-68
2022/11/22 13:40:53;;;;;;;32.37;16.80;;;;;;;;;;5096668;28;20825;-70
2022/11/22 13:46:42;;;;;;;22.53;13.33;;;;;;;;;;5082104;28;20499;-69
2022/11/22 13:49:43;;;;;;;23.63;12.97;;;;;;;;;;5100891;28;21093;-68
2022/11/22 13:52:35;;;;;;;23.77;13.13;;;;;;;;;;5094396;28;20481;-69
2022/11/22 13:55:19;;;;;;;27.03;15.10;;;;;;;;;;5096610;28;20463;-68
2022/11/22 13:57:57;;;;;;;24.37;13.20;;;;;;;;;;5078438;28;20494;-69
2022/11/22 14:00:50;;;;;;;23.40;12.87;;;;;;;;;;5096424;28;20487;-68
2022/11/22 14:03:33;;;;;;;25.00;14.00;;;;;;;;;;5096584;28;20459;-68
2022/11/22 14:06:02;;;;;;;21.83;13.17;;;;;;;;;;5105590;28;20485;-69
2022/11/22 14:08:39;;;;;;;24.67;12.60;;;;;;;;;;5103680;28;20460;-69
2022/11/22 14:11:26;;;;;;;23.37;13.77;;;;;;;;;;5101575;28;20447;-70
2022/11/22 14:14:00;;;;;;;21.97;12.70;;;;;;;;;;5094085;28;20563;-69
2022/11/22 14:16:43;;;;;;;20.80;12.80;;;;;;;;;;5097403;28;20484;-69
2022/11/22 14:19:23;;;;;;;24.33;13.23;;;;;;;;;;5098040;28;20464;-68
2022/11/22 14:22:00;;;;;;;21.37;12.60;;;;;;;;;;5085092;28;20488;-69
2022/11/22 14:24:50;;;;;;;25.07;15.00;;;;;;;;;;5094054;28;20939;-69
2022/11/22 14:27:30;;;;;;;27.07;13.47;;;;;;;;;;5096315;28;20468;-68
2022/11/22 14:30:17;;;;;;;25.43;12.70;;;;;;;;;;5086927;28;20464;-69
2022/11/22 14:32:54;;;;;;;20.03;12.13;;;;;;;;;;5077955;28;20567;-68
2022/11/22 14:35:40;;;;;;;23.93;13.67;;;;;;;;;;5088696;28;20964;-69
2022/11/22 14:38:40;;;;;;;27.33;12.90;;;;;;;;;;5094559;28;20499;-69
2022/11/22 14:41:26;;;;;;;21.30;12.03;;;;;;;;;;5078964;28;20455;-69
2022/11/22 14:43:55;;;;;;;20.33;13.20;;;;;;;;;;5076594;28;20466;-68
2022/11/22 14:46:26;;;;;;;21.67;11.40;;;;;;;;;;5095672;28;20483;-68
2022/11/22 14:48:58;;;;;;;22.23;12.77;;;;;;;;;;5099646;28;20463;-68
2022/11/22 14:51:28;;;;;;;26.53;13.77;;;;;;;;;;5075121;28;20547;-68
2022/11/22 14:54:15;;;;;;;20.20;13.60;;;;;;;;;;5074920;28;20475;-68
2022/11/22 14:56:47;;;;;;;25.57;11.80;;;;;;;;;;5074449;28;20519;-68
2022/11/22 14:59:20;;;;;;;23.03;15.00;;;;;;;;;;5092761;28;20463;-68
2022/11/22 15:02:17;;;;;;;25.50;13.50;;;;;;;;;;5093636;28;20462;-67
2022/11/22 15:04:52;;;;;;;25.90;13.03;;;;;;;;;;5095529;28;20468;-68
2022/11/22 15:07:34;;;;;;;28.43;14.97;;;;;;;;;;5090649;28;20835;-67
2022/11/22 15:10:23;;;;;;;21.07;13.07;;;;;;;;;;5074036;28;20468;-68
2022/11/22 15:13:08;;;;;;;24.37;13.40;;;;;;;;;;5090616;28;20731;-67
2022/11/22 15:15:36;;;;;;;21.80;13.93;;;;;;;;;;5073953;28;20472;-67
2022/11/22 15:18:22;;;;;;;29.33;13.67;;;;;;;;;;5085755;28;20497;-66
2022/11/22 15:20:54;;;;;;;26.03;13.07;;;;;;;;;;5094596;28;20452;-67
2022/11/22 15:23:25;;;;;;;30.17;13.20;;;;;;;;;;5094676;28;20448;-67
2022/11/22 15:26:07;;;;;;;23.60;13.17;;;;;;;;;;5077117;28;20470;-67
2022/11/22 15:28:54;;;;;;;23.37;13.53;;;;;;;;;;5093394;28;20732;-67
2022/11/22 15:31:27;;;;;;;27.13;12.67;;;;;;;;;;5091599;28;20463;-67
2022/11/22 15:34:06;;;;;;;23.53;12.43;;;;;;;;;;5091837;28;20480;-66
2022/11/22 15:37:07;;;;;;;25.40;12.20;;;;;;;;;;5084784;28;20491;-67
2022/11/22 15:39:50;;;;;;;19.40;12.30;;;;;;;;;;5063357;28;21034;-67
2022/11/22 15:42:20;;;;;;;28.27;12.77;;;;;;;;;;5097618;28;20503;-67
2022/11/22 15:44:53;;;;;;;22.50;13.63;;;;;;;;;;5091378;28;20482;-70
2022/11/22 15:47:28;;;;;;;23.43;12.27;;;;;;;;;;5083202;28;20467;-67